sensor_id;sensor_type;location;lat;lon;timestamp;temperature;humidity
74520;DHT22;63002;48.134;-1.948;2023-11-22T06:00:39;19.40;59.80
74520;DHT22;63002;48.134;-1.948;2023-11-22T06:03:05;19.40;59.80
74520;DHT22;63002;48.134;-1.948;2023-11-22T06:05:31;19.40;59.80
74520;DHT22;63002;48.134;-1.948;2023-11-22T06:07:57;19.40;59.80
74520;DHT22;63002;48.134;-1.948;2023-11-22T06:10:22;19.40;59.70
74520;DHT22;63002;48.134;-1.948;2023-11-22T06:12:48;19.50;59.70
74520;DHT22;63002;48.134;-1.948;2023-11-22T06:15:14;19.50;59.60
74520;DHT22;63002;48.134;-1.948;2023-11-22T06:17:39;19.50;59.60
74520;DHT22;63002;48.134;-1.948;2023-11-22T06:20:05;19.60;59.20
74520;DHT22;63002;48.134;-1.948;2023-11-22T06:22:32;19.40;59.40
74520;DHT22;63002;48.134;-1.948;2023-11-22T06:24:58;19.70;59.90
74520;DHT22;63002;48.134;-1.948;2023-11-22T06:27:23;19.70;59.90
74520;DHT22;63002;48.134;-1.948;2023-11-22T06:29:49;19.70;60.10
74520;DHT22;63002;48.134;-1.948;2023-11-22T06:32:14;19.70;60.10
74520;DHT22;63002;48.134;-1.948;2023-11-22T06:34:40;19.70;60.20
74520;DHT22;63002;48.134;-1.948;2023-11-22T06:37:06;19.70;60.20
74520;DHT22;63002;48.134;-1.948;2023-11-22T06:39:34;19.70;60.20
74520;DHT22;63002;48.134;-1.948;2023-11-22T06:42:00;19.70;60.20
74520;DHT22;63002;48.134;-1.948;2023-11-22T06:44:26;19.70;60.20
74520;DHT22;63002;48.134;-1.948;2023-11-22T06:46:53;19.80;59.80
74520;DHT22;63002;48.134;-1.948;2023-11-22T06:49:19;19.80;59.60
74520;DHT22;63002;48.134;-1.948;2023-11-22T06:51:45;19.80;59.40
74520;DHT22;63002;48.134;-1.948;2023-11-22T06:54:10;19.80;59.30
74520;DHT22;63002;48.134;-1.948;2023-11-22T06:56:36;19.80;59.40
74520;DHT22;63002;48.134;-1.948;2023-11-22T06:59:02;19.80;59.40
74520;DHT22;63002;48.134;-1.948;2023-11-22T07:01:28;19.70;59.60
74520;DHT22;63002;48.134;-1.948;2023-11-22T07:03:55;19.70;59.70
74520;DHT22;63002;48.134;-1.948;2023-11-22T07:06:21;19.70;59.70
74520;DHT22;63002;48.134;-1.948;2023-11-22T07:08:48;19.70;59.80
74520;DHT22;63002;48.134;-1.948;2023-11-22T07:11:21;19.70;59.80
74520;DHT22;63002;48.134;-1.948;2023-11-22T07:13:48;19.70;59.90
74520;DHT22;63002;48.134;-1.948;2023-11-22T07:16:14;19.70;59.80
74520;DHT22;63002;48.134;-1.948;2023-11-22T07:18:40;19.70;59.80
74520;DHT22;63002;48.134;-1.948;2023-11-22T07:21:06;19.70;59.80
74520;DHT22;63002;48.134;-1.948;2023-11-22T07:23:32;19.70;59.80
74520;DHT22;63002;48.134;-1.948;2023-11-22T07:25:57;19.70;59.90
74520;DHT22;63002;48.134;-1.948;2023-11-22T07:28:23;19.70;59.90
74520;DHT22;63002;48.134;-1.948;2023-11-22T07:30:50;19.70;59.90
74520;DHT22;63002;48.134;-1.948;2023-11-22T07:33:17;19.70;59.90
74520;DHT22;63002;48.134;-1.948;2023-11-22T07:35:46;19.70;59.90
74520;DHT22;63002;48.134;-1.948;2023-11-22T07:38:11;19.70;59.90
74520;DHT22;63002;48.134;-1.948;2023-11-22T07:40:37;19.70;59.90
74520;DHT22;63002;48.134;-1.948;2023-11-22T07:43:03;19.70;60.00
74520;DHT22;63002;48.134;-1.948;2023-11-22T07:45:33;19.70;59.90
74520;DHT22;63002;48.134;-1.948;2023-11-22T07:47:59;19.70;59.90
74520;DHT22;63002;48.134;-1.948;2023-11-22T07:50:26;19.70;59.90
74520;DHT22;63002;48.134;-1.948;2023-11-22T07:52:51;19.70;59.90
74520;DHT22;63002;48.134;-1.948;2023-11-22T07:55:17;19.70;60.00
74520;DHT22;63002;48.134;-1.948;2023-11-22T07:57:48;19.70;59.90
74520;DHT22;63002;48.134;-1.948;2023-11-22T08:00:17;19.70;59.90
74520;DHT22;63002;48.134;-1.948;2023-11-22T08:02:45;19.70;60.00
74520;DHT22;63002;48.134;-1.948;2023-11-22T08:05:11;19.70;60.00
74520;DHT22;63002;48.134;-1.948;2023-11-22T08:07:38;19.70;60.00
74520;DHT22;63002;48.134;-1.948;2023-11-22T08:10:07;19.70;60.00
74520;DHT22;63002;48.134;-1.948;2023-11-22T08:12:45;19.70;60.00
74520;DHT22;63002;48.134;-1.948;2023-11-22T08:15:11;19.70;60.00
74520;DHT22;63002;48.134;-1.948;2023-11-22T08:17:40;19.70;60.00
74520;DHT22;63002;48.134;-1.948;2023-11-22T08:20:07;19.70;60.00
74520;DHT22;63002;48.134;-1.948;2023-11-22T08:22:38;19.70;59.90
74520;DHT22;63002;48.134;-1.948;2023-11-22T08:25:05;19.70;60.00
74520;DHT22;63002;48.134;-1.948;2023-11-22T08:27:31;19.70;60.00
74520;DHT22;63002;48.134;-1.948;2023-11-22T08:29:58;19.70;60.00
74520;DHT22;63002;48.134;-1.948;2023-11-22T08:32:23;19.70;60.00
74520;DHT22;63002;48.134;-1.948;2023-11-22T08:34:54;19.60;60.00
74520;DHT22;63002;48.134;-1.948;2023-11-22T08:37:20;19.60;60.00
74520;DHT22;63002;48.134;-1.948;2023-11-22T08:39:46;19.70;60.10
74520;DHT22;63002;48.134;-1.948;2023-11-22T08:42:11;19.60;60.10
74520;DHT22;63002;48.134;-1.948;2023-11-22T08:44:40;19.70;60.10
74520;DHT22;63002;48.134;-1.948;2023-11-22T08:47:06;19.60;60.10
74520;DHT22;63002;48.134;-1.948;2023-11-22T08:49:34;19.60;60.10
74520;DHT22;63002;48.134;-1.948;2023-11-22T08:52:00;19.70;60.10
74520;DHT22;63002;48.134;-1.948;2023-11-22T08:54:28;19.70;60.00
74520;DHT22;63002;48.134;-1.948;2023-11-22T08:56:55;19.60;60.10
74520;DHT22;63002;48.134;-1.948;2023-11-22T08:59:23;19.70;60.00
74520;DHT22;63002;48.134;-1.948;2023-11-22T09:01:49;19.60;60.10
74520;DHT22;63002;48.134;-1.948;2023-11-22T09:04:15;19.70;60.10
74520;DHT22;63002;48.134;-1.948;2023-11-22T09:06:41;19.70;60.10
74520;DHT22;63002;48.134;-1.948;2023-11-22T09:09:07;19.70;60.00
74520;DHT22;63002;48.134;-1.948;2023-11-22T09:11:34;19.70;60.00
74520;DHT22;63002;48.134;-1.948;2023-11-22T09:14:00;19.70;60.10
74520;DHT22;63002;48.134;-1.948;2023-11-22T09:16:37;19.70;60.00
74520;DHT22;63002;48.134;-1.948;2023-11-22T09:19:04;19.70;60.00
74520;DHT22;63002;48.134;-1.948;2023-11-22T09:21:33;19.60;60.00
74520;DHT22;63002;48.134;-1.948;2023-11-22T09:23:59;19.70;60.10
74520;DHT22;63002;48.134;-1.948;2023-11-22T09:26:24;19.60;60.00
74520;DHT22;63002;48.134;-1.948;2023-11-22T09:28:50;19.70;60.00
74520;DHT22;63002;48.134;-1.948;2023-11-22T09:31:16;19.60;60.10
74520;DHT22;63002;48.134;-1.948;2023-11-22T09:33:46;19.60;60.10
74520;DHT22;63002;48.134;-1.948;2023-11-22T09:36:12;19.70;60.00
74520;DHT22;63002;48.134;-1.948;2023-11-22T09:38:38;19.70;60.00
74520;DHT22;63002;48.134;-1.948;2023-11-22T09:41:04;19.60;60.00
74520;DHT22;63002;48.134;-1.948;2023-11-22T09:43:30;19.70;59.90
74520;DHT22;63002;48.134;-1.948;2023-11-22T09:45:56;19.60;60.00
74520;DHT22;63002;48.134;-1.948;2023-11-22T09:48:23;19.60;60.10
74520;DHT22;63002;48.134;-1.948;2023-11-22T09:50:57;19.60;60.00
74520;DHT22;63002;48.134;-1.948;2023-11-22T09:53:34;19.60;60.00
74520;DHT22;63002;48.134;-1.948;2023-11-22T09:56:03;19.60;60.10
74520;DHT22;63002;48.134;-1.948;2023-11-22T09:58:33;19.60;60.00
74520;DHT22;63002;48.134;-1.948;2023-11-22T10:01:00;19.60;60.10
74520;DHT22;63002;48.134;-1.948;2023-11-22T10:03:27;19.60;60.00
74520;DHT22;63002;48.134;-1.948;2023-11-22T10:05:56;19.60;60.10
74520;DHT22;63002;48.134;-1.948;2023-11-22T10:08:27;19.60;60.00
74520;DHT22;63002;48.134;-1.948;2023-11-22T10:10:56;19.60;60.00
74520;DHT22;63002;48.134;-1.948;2023-11-22T10:13:22;19.60;60.00
74520;DHT22;63002;48.134;-1.948;2023-11-22T10:15:49;19.60;60.10
74520;DHT22;63002;48.134;-1.948;2023-11-22T10:18:15;19.60;60.00
74520;DHT22;63002;48.134;-1.948;2023-11-22T10:20:45;19.60;60.00
74520;DHT22;63002;48.134;-1.948;2023-11-22T10:23:18;19.60;60.00
74520;DHT22;63002;48.134;-1.948;2023-11-22T10:25:54;19.60;60.00
74520;DHT22;63002;48.134;-1.948;2023-11-22T10:28:22;19.60;60.00
74520;DHT22;63002;48.134;-1.948;2023-11-22T10:30:51;19.60;60.10
74520;DHT22;63002;48.134;-1.948;2023-11-22T10:33:20;19.60;60.10
74520;DHT22;63002;48.134;-1.948;2023-11-22T10:35:50;19.60;60.20
74520;DHT22;63002;48.134;-1.948;2023-11-22T10:38:20;19.60;60.10
74520;DHT22;63002;48.134;-1.948;2023-11-22T10:40:47;19.60;60.20
74520;DHT22;63002;48.134;-1.948;2023-11-22T10:43:15;19.60;60.10
74520;DHT22;63002;48.134;-1.948;2023-11-22T10:45:43;19.60;60.10
74520;DHT22;63002;48.134;-1.948;2023-11-22T10:48:14;19.60;60.10
74520;DHT22;63002;48.134;-1.948;2023-11-22T10:50:42;19.60;60.10
74520;DHT22;63002;48.134;-1.948;2023-11-22T10:53:12;19.60;60.10
74520;DHT22;63002;48.134;-1.948;2023-11-22T10:55:44;19.60;60.10
74520;DHT22;63002;48.134;-1.948;2023-11-22T10:58:11;19.60;60.10
74520;DHT22;63002;48.134;-1.948;2023-11-22T11:00:40;19.60;60.10
74520;DHT22;63002;48.134;-1.948;2023-11-22T11:03:18;19.60;60.10
74520;DHT22;63002;48.134;-1.948;2023-11-22T11:05:58;19.60;60.00
74520;DHT22;63002;48.134;-1.948;2023-11-22T11:08:28;19.60;60.00
74520;DHT22;63002;48.134;-1.948;2023-11-22T11:10:55;19.60;60.00
74520;DHT22;63002;48.134;-1.948;2023-11-22T11:13:21;19.60;60.00
74520;DHT22;63002;48.134;-1.948;2023-11-22T11:15:49;19.60;60.00
74520;DHT22;63002;48.134;-1.948;2023-11-22T11:18:17;19.60;60.00
74520;DHT22;63002;48.134;-1.948;2023-11-22T11:20:49;19.60;60.00
74520;DHT22;63002;48.134;-1.948;2023-11-22T11:23:22;19.60;60.00
74520;DHT22;63002;48.134;-1.948;2023-11-22T11:25:51;19.60;60.00
74520;DHT22;63002;48.134;-1.948;2023-11-22T11:28:18;19.60;60.10
74520;DHT22;63002;48.134;-1.948;2023-11-22T11:30:46;19.60;60.00
74520;DHT22;63002;48.134;-1.948;2023-11-22T11:33:19;19.60;60.10
74520;DHT22;63002;48.134;-1.948;2023-11-22T11:35:51;19.70;59.90
74520;DHT22;63002;48.134;-1.948;2023-11-22T11:38:21;19.70;59.80
74520;DHT22;63002;48.134;-1.948;2023-11-22T11:40:49;19.70;59.90
74520;DHT22;63002;48.134;-1.948;2023-11-22T11:43:20;19.70;60.00
74520;DHT22;63002;48.134;-1.948;2023-11-22T11:45:46;19.60;60.00
74520;DHT22;63002;48.134;-1.948;2023-11-22T11:48:16;19.60;60.10
74520;DHT22;63002;48.134;-1.948;2023-11-22T11:50:43;19.70;60.10
74520;DHT22;63002;48.134;-1.948;2023-11-22T11:53:12;19.60;60.10
74520;DHT22;63002;48.134;-1.948;2023-11-22T11:55:37;19.60;60.10
74520;DHT22;63002;48.134;-1.948;2023-11-22T11:58:07;19.60;60.10
74520;DHT22;63002;48.134;-1.948;2023-11-22T12:00:38;19.60;60.10
74520;DHT22;63002;48.134;-1.948;2023-11-22T12:03:10;19.60;60.10
74520;DHT22;63002;48.134;-1.948;2023-11-22T12:05:40;19.60;60.10
74520;DHT22;63002;48.134;-1.948;2023-11-22T12:08:05;19.60;60.10
74520;DHT22;63002;48.134;-1.948;2023-11-22T12:10:31;19.60;60.10
74520;DHT22;63002;48.134;-1.948;2023-11-22T12:12:58;19.60;60.10
74520;DHT22;63002;48.134;-1.948;2023-11-22T12:15:24;19.60;60.10
74520;DHT22;63002;48.134;-1.948;2023-11-22T12:17:51;19.70;59.90
74520;DHT22;63002;48.134;-1.948;2023-11-22T12:20:17;19.70;60.00
74520;DHT22;63002;48.134;-1.948;2023-11-22T12:22:49;19.70;60.10
74520;DHT22;63002;48.134;-1.948;2023-11-22T12:25:15;19.70;60.10
74520;DHT22;63002;48.134;-1.948;2023-11-22T12:27:42;19.70;60.00
74520;DHT22;63002;48.134;-1.948;2023-11-22T12:30:09;19.70;60.10
74520;DHT22;63002;48.134;-1.948;2023-11-22T12:32:40;19.70;60.10
74520;DHT22;63002;48.134;-1.948;2023-11-22T12:35:07;19.70;60.10
74520;DHT22;63002;48.134;-1.948;2023-11-22T12:37:34;19.70;60.00
74520;DHT22;63002;48.134;-1.948;2023-11-22T12:40:09;19.70;60.10
74520;DHT22;63002;48.134;-1.948;2023-11-22T12:42:49;19.70;60.10
74520;DHT22;63002;48.134;-1.948;2023-11-22T12:45:19;19.70;56.40
74520;DHT22;63002;48.134;-1.948;2023-11-22T12:47:45;19.30;58.20
74520;DHT22;63002;48.134;-1.948;2023-11-22T12:50:30;19.40;58.90
74520;DHT22;63002;48.134;-1.948;2023-11-22T12:53:07;19.50;59.00
74520;DHT22;63002;48.134;-1.948;2023-11-22T12:55:32;19.60;59.70
74520;DHT22;63002;48.134;-1.948;2023-11-22T12:57:58;19.80;59.60
74520;DHT22;63002;48.134;-1.948;2023-11-22T13:00:29;19.80;59.70
74520;DHT22;63002;48.134;-1.948;2023-11-22T13:02:56;19.80;59.60
74520;DHT22;63002;48.134;-1.948;2023-11-22T13:05:24;19.80;59.60
74520;DHT22;63002;48.134;-1.948;2023-11-22T13:07:51;19.80;59.80
74520;DHT22;63002;48.134;-1.948;2023-11-22T13:10:18;19.80;60.00
74520;DHT22;63002;48.134;-1.948;2023-11-22T13:12:44;19.80;60.30
74520;DHT22;63002;48.134;-1.948;2023-11-22T13:15:13;19.90;60.20
74520;DHT22;63002;48.134;-1.948;2023-11-22T13:17:39;20.10;60.10
74520;DHT22;63002;48.134;-1.948;2023-11-22T13:20:08;20.20;59.90
74520;DHT22;63002;48.134;-1.948;2023-11-22T13:22:43;20.30;59.80
74520;DHT22;63002;48.134;-1.948;2023-11-22T13:25:09;20.30;59.80
74520;DHT22;63002;48.134;-1.948;2023-11-22T13:27:39;20.40;59.70
74520;DHT22;63002;48.134;-1.948;2023-11-22T13:30:06;20.40;59.60
74520;DHT22;63002;48.134;-1.948;2023-11-22T13:32:32;20.30;58.00
74520;DHT22;63002;48.134;-1.948;2023-11-22T13:34:58;20.10;54.10
74520;DHT22;63002;48.134;-1.948;2023-11-22T13:37:24;19.90;57.30
74520;DHT22;63002;48.134;-1.948;2023-11-22T13:39:50;19.90;58.20
74520;DHT22;63002;48.134;-1.948;2023-11-22T13:42:16;20.00;58.50
74520;DHT22;63002;48.134;-1.948;2023-11-22T13:44:42;20.00;58.60
74520;DHT22;63002;48.134;-1.948;2023-11-22T13:47:10;20.00;58.90
74520;DHT22;63002;48.134;-1.948;2023-11-22T13:49:36;20.10;59.00
74520;DHT22;63002;48.134;-1.948;2023-11-22T13:52:03;20.10;59.00
74520;DHT22;63002;48.134;-1.948;2023-11-22T13:54:28;20.10;59.10
74520;DHT22;63002;48.134;-1.948;2023-11-22T13:56:55;20.10;59.10
74520;DHT22;63002;48.134;-1.948;2023-11-22T13:59:20;20.10;59.30
74520;DHT22;63002;48.134;-1.948;2023-11-22T14:01:46;20.10;59.30
74520;DHT22;63002;48.134;-1.948;2023-11-22T14:04:12;20.10;59.40
74520;DHT22;63002;48.134;-1.948;2023-11-22T14:06:38;20.10;59.40
74520;DHT22;63002;48.134;-1.948;2023-11-22T14:09:03;20.10;59.40
74520;DHT22;63002;48.134;-1.948;2023-11-22T14:11:29;20.00;59.50
74520;DHT22;63002;48.134;-1.948;2023-11-22T14:13:59;20.00;59.50
74520;DHT22;63002;48.134;-1.948;2023-11-22T14:16:27;20.00;59.50
74520;DHT22;63002;48.134;-1.948;2023-11-22T14:18:53;20.10;59.50
74520;DHT22;63002;48.134;-1.948;2023-11-22T14:21:19;20.00;59.60
74520;DHT22;63002;48.134;-1.948;2023-11-22T14:23:44;20.00;59.50
74520;DHT22;63002;48.134;-1.948;2023-11-22T14:26:10;20.00;59.60
74520;DHT22;63002;48.134;-1.948;2023-11-22T14:28:37;20.00;59.70
74520;DHT22;63002;48.134;-1.948;2023-11-22T14:31:03;20.10;59.50
74520;DHT22;63002;48.134;-1.948;2023-11-22T14:33:29;20.20;59.20
74520;DHT22;63002;48.134;-1.948;2023-11-22T14:35:57;20.20;59.20
74520;DHT22;63002;48.134;-1.948;2023-11-22T14:38:24;20.20;59.30
74520;DHT22;63002;48.134;-1.948;2023-11-22T14:40:51;20.10;59.40
74520;DHT22;63002;48.134;-1.948;2023-11-22T14:43:17;20.10;59.30
74520;DHT22;63002;48.134;-1.948;2023-11-22T14:45:43;20.10;59.40
74520;DHT22;63002;48.134;-1.948;2023-11-22T14:48:09;20.10;59.50
74520;DHT22;63002;48.134;-1.948;2023-11-22T14:50:36;20.10;59.50
74520;DHT22;63002;48.134;-1.948;2023-11-22T14:53:01;20.10;59.50
74520;DHT22;63002;48.134;-1.948;2023-11-22T14:55:27;20.10;59.50
74520;DHT22;63002;48.134;-1.948;2023-11-22T14:57:54;19.60;54.00
74520;DHT22;63002;48.134;-1.948;2023-11-22T15:00:22;19.10;56.80
74520;DHT22;63002;48.134;-1.948;2023-11-22T15:02:48;19.30;58.00
74520;DHT22;63002;48.134;-1.948;2023-11-22T15:05:19;19.50;58.60
74520;DHT22;63002;48.134;-1.948;2023-11-22T15:07:44;19.60;58.80
74520;DHT22;63002;48.134;-1.948;2023-11-22T15:10:11;19.70;58.90
74520;DHT22;63002;48.134;-1.948;2023-11-22T15:12:37;19.70;59.00
74520;DHT22;63002;48.134;-1.948;2023-11-22T15:15:05;19.70;59.00
74520;DHT22;63002;48.134;-1.948;2023-11-22T15:17:32;19.80;59.10
74520;DHT22;63002;48.134;-1.948;2023-11-22T15:19:58;19.80;59.10
74520;DHT22;63002;48.134;-1.948;2023-11-22T15:22:24;19.80;59.20
74520;DHT22;63002;48.134;-1.948;2023-11-22T15:24:50;19.80;59.30
74520;DHT22;63002;48.134;-1.948;2023-11-22T15:27:15;19.80;59.30
74520;DHT22;63002;48.134;-1.948;2023-11-22T15:29:41;19.80;59.30
74520;DHT22;63002;48.134;-1.948;2023-11-22T15:32:07;19.90;59.30
74520;DHT22;63002;48.134;-1.948;2023-11-22T15:34:32;19.90;59.30
74520;DHT22;63002;48.134;-1.948;2023-11-22T15:36:58;19.80;59.40
74520;DHT22;63002;48.134;-1.948;2023-11-22T15:39:24;19.80;59.40
74520;DHT22;63002;48.134;-1.948;2023-11-22T15:41:50;19.80;59.50
74520;DHT22;63002;48.134;-1.948;2023-11-22T15:44:16;19.80;59.50
74520;DHT22;63002;48.134;-1.948;2023-11-22T15:46:42;19.90;59.50
74520;DHT22;63002;48.134;-1.948;2023-11-22T15:49:08;19.90;59.50
74520;DHT22;63002;48.134;-1.948;2023-11-22T15:51:35;19.90;59.40
74520;DHT22;63002;48.134;-1.948;2023-11-22T15:54:01;19.90;59.30
74520;DHT22;63002;48.134;-1.948;2023-11-22T15:56:27;20.00;59.30
74520;DHT22;63002;48.134;-1.948;2023-11-22T15:58:53;19.90;59.30
74520;DHT22;63002;48.134;-1.948;2023-11-22T16:01:25;19.90;59.40
74520;DHT22;63002;48.134;-1.948;2023-11-22T16:03:51;19.90;59.40
74520;DHT22;63002;48.134;-1.948;2023-11-22T16:06:17;19.90;59.50
74520;DHT22;63002;48.134;-1.948;2023-11-22T16:08:44;19.90;59.50
74520;DHT22;63002;48.134;-1.948;2023-11-22T16:11:10;19.90;59.50
74520;DHT22;63002;48.134;-1.948;2023-11-22T16:13:37;19.90;59.50
74520;DHT22;63002;48.134;-1.948;2023-11-22T16:16:02;19.90;59.50
74520;DHT22;63002;48.134;-1.948;2023-11-22T16:18:28;19.90;59.60
74520;DHT22;63002;48.134;-1.948;2023-11-22T16:20:55;19.90;59.60
74520;DHT22;63002;48.134;-1.948;2023-11-22T16:23:22;19.90;59.60
74520;DHT22;63002;48.134;-1.948;2023-11-22T16:25:48;19.90;59.50
74520;DHT22;63002;48.134;-1.948;2023-11-22T16:28:15;19.90;59.50
74520;DHT22;63002;48.134;-1.948;2023-11-22T16:30:41;19.90;59.50
74520;DHT22;63002;48.134;-1.948;2023-11-22T16:33:09;19.90;59.50
74520;DHT22;63002;48.134;-1.948;2023-11-22T16:35:34;19.90;59.60
74520;DHT22;63002;48.134;-1.948;2023-11-22T16:38:00;19.90;59.60
74520;DHT22;63002;48.134;-1.948;2023-11-22T16:40:28;19.90;59.60
74520;DHT22;63002;48.134;-1.948;2023-11-22T16:42:54;19.80;59.60
74520;DHT22;63002;48.134;-1.948;2023-11-22T16:45:20;19.80;59.50
74520;DHT22;63002;48.134;-1.948;2023-11-22T16:47:46;19.80;59.60
74520;DHT22;63002;48.134;-1.948;2023-11-22T16:50:12;19.80;59.60
74520;DHT22;63002;48.134;-1.948;2023-11-22T16:52:39;19.80;59.60
74520;DHT22;63002;48.134;-1.948;2023-11-22T16:55:08;19.80;59.70
74520;DHT22;63002;48.134;-1.948;2023-11-22T16:57:37;19.80;59.70
74520;DHT22;63002;48.134;-1.948;2023-11-22T17:00:05;19.80;59.60
74520;DHT22;63002;48.134;-1.948;2023-11-22T17:02:35;19.80;59.60
74520;DHT22;63002;48.134;-1.948;2023-11-22T17:05:02;19.80;59.60
74520;DHT22;63002;48.134;-1.948;2023-11-22T17:07:28;19.80;59.60
74520;DHT22;63002;48.134;-1.948;2023-11-22T17:09:54;19.80;59.60
74520;DHT22;63002;48.134;-1.948;2023-11-22T17:12:20;19.80;59.60
74520;DHT22;63002;48.134;-1.948;2023-11-22T17:14:46;19.80;59.60
74520;DHT22;63002;48.134;-1.948;2023-11-22T17:17:12;19.70;58.80
74520;DHT22;63002;48.134;-1.948;2023-11-22T17:19:37;19.80;58.40
74520;DHT22;63002;48.134;-1.948;2023-11-22T17:22:03;19.80;58.00
74520;DHT22;63002;48.134;-1.948;2023-11-22T17:24:29;19.40;56.90
74520;DHT22;63002;48.134;-1.948;2023-11-22T17:26:54;19.50;57.80
74520;DHT22;63002;48.134;-1.948;2023-11-22T17:29:20;19.50;57.80
74520;DHT22;63002;48.134;-1.948;2023-11-22T17:31:48;19.60;58.20
74520;DHT22;63002;48.134;-1.948;2023-11-22T17:34:14;19.60;58.30
74520;DHT22;63002;48.134;-1.948;2023-11-22T17:36:40;19.50;57.10
74520;DHT22;63002;48.134;-1.948;2023-11-22T17:39:06;19.30;57.70
74520;DHT22;63002;48.134;-1.948;2023-11-22T17:41:33;19.00;55.40
74520;DHT22;63002;48.134;-1.948;2023-11-22T17:44:00;18.40;56.10
74520;DHT22;63002;48.134;-1.948;2023-11-22T17:46:25;18.60;58.20
74520;DHT22;63002;48.134;-1.948;2023-11-22T17:48:51;19.00;58.50
74520;DHT22;63002;48.134;-1.948;2023-11-22T17:51:17;19.30;58.30
74520;DHT22;63002;48.134;-1.948;2023-11-22T17:53:43;19.30;58.40
74520;DHT22;63002;48.134;-1.948;2023-11-22T17:56:09;19.40;58.50
74520;DHT22;63002;48.134;-1.948;2023-11-22T17:58:36;19.20;56.90
74520;DHT22;63002;48.134;-1.948;2023-11-22T18:01:01;19.20;57.90
74520;DHT22;63002;48.134;-1.948;2023-11-22T18:03:27;19.20;55.70
74520;DHT22;63002;48.134;-1.948;2023-11-22T18:05:54;19.20;57.90
74520;DHT22;63002;48.134;-1.948;2023-11-22T18:08:19;19.30;58.50
74520;DHT22;63002;48.134;-1.948;2023-11-22T18:10:47;19.40;58.60
74520;DHT22;63002;48.134;-1.948;2023-11-22T18:13:15;19.50;58.70
74520;DHT22;63002;48.134;-1.948;2023-11-22T18:15:41;19.50;58.60
74520;DHT22;63002;48.134;-1.948;2023-11-22T18:18:08;19.60;58.70
74520;DHT22;63002;48.134;-1.948;2023-11-22T18:20:34;19.60;58.80
74520;DHT22;63002;48.134;-1.948;2023-11-22T18:23:00;19.60;58.80
74520;DHT22;63002;48.134;-1.948;2023-11-22T18:25:27;19.60;59.00
74520;DHT22;63002;48.134;-1.948;2023-11-22T18:27:52;19.70;59.00
74520;DHT22;63002;48.134;-1.948;2023-11-22T18:30:18;19.70;59.00
74520;DHT22;63002;48.134;-1.948;2023-11-22T18:32:44;19.70;59.00
74520;DHT22;63002;48.134;-1.948;2023-11-22T18:35:10;19.70;59.10
74520;DHT22;63002;48.134;-1.948;2023-11-22T18:37:39;19.80;59.10
74520;DHT22;63002;48.134;-1.948;2023-11-22T18:40:07;19.80;59.10
74520;DHT22;63002;48.134;-1.948;2023-11-22T18:42:33;19.80;59.10
74520;DHT22;63002;48.134;-1.948;2023-11-22T18:45:02;19.80;59.10
74520;DHT22;63002;48.134;-1.948;2023-11-22T18:47:29;19.90;59.10
74520;DHT22;63002;48.134;-1.948;2023-11-22T18:49:55;19.90;59.10
74520;DHT22;63002;48.134;-1.948;2023-11-22T18:52:20;19.90;59.10
74520;DHT22;63002;48.134;-1.948;2023-11-22T18:54:46;20.00;59.10
74520;DHT22;63002;48.134;-1.948;2023-11-22T18:57:12;20.00;59.30
74520;DHT22;63002;48.134;-1.948;2023-11-22T18:59:42;20.00;59.50
74520;DHT22;63002;48.134;-1.948;2023-11-22T19:02:09;20.10;59.60
74520;DHT22;63002;48.134;-1.948;2023-11-22T19:04:35;20.10;59.90
74520;DHT22;63002;48.134;-1.948;2023-11-22T19:07:03;20.10;59.90
74520;DHT22;63002;48.134;-1.948;2023-11-22T19:09:29;20.10;59.90
74520;DHT22;63002;48.134;-1.948;2023-11-22T19:11:55;20.10;59.90
74520;DHT22;63002;48.134;-1.948;2023-11-22T19:14:24;20.00;60.00
74520;DHT22;63002;48.134;-1.948;2023-11-22T19:16:51;20.00;60.00
74520;DHT22;63002;48.134;-1.948;2023-11-22T19:19:18;20.00;60.10
74520;DHT22;63002;48.134;-1.948;2023-11-22T19:21:44;20.00;59.50
74520;DHT22;63002;48.134;-1.948;2023-11-22T19:24:09;19.80;59.40
74520;DHT22;63002;48.134;-1.948;2023-11-22T19:26:35;19.90;59.70
74520;DHT22;63002;48.134;-1.948;2023-11-22T19:29:02;19.90;59.80
74520;DHT22;63002;48.134;-1.948;2023-11-22T19:31:28;19.90;59.90
74520;DHT22;63002;48.134;-1.948;2023-11-22T19:33:54;19.90;59.90
74520;DHT22;63002;48.134;-1.948;2023-11-22T19:36:24;20.00;60.10
74520;DHT22;63002;48.134;-1.948;2023-11-22T19:38:51;20.00;60.10
74520;DHT22;63002;48.134;-1.948;2023-11-22T19:41:19;20.00;60.10
74520;DHT22;63002;48.134;-1.948;2023-11-22T19:43:47;20.00;60.20
74520;DHT22;63002;48.134;-1.948;2023-11-22T19:46:13;20.00;60.20
74520;DHT22;63002;48.134;-1.948;2023-11-22T19:48:39;20.00;60.20
74520;DHT22;63002;48.134;-1.948;2023-11-22T19:51:05;20.00;60.20
74520;DHT22;63002;48.134;-1.948;2023-11-22T19:53:31;20.00;60.20
74520;DHT22;63002;48.134;-1.948;2023-11-22T19:55:58;20.00;60.20
74520;DHT22;63002;48.134;-1.948;2023-11-22T19:58:25;20.00;60.20
74520;DHT22;63002;48.134;-1.948;2023-11-22T20:00:51;20.00;60.30
74520;DHT22;63002;48.134;-1.948;2023-11-22T20:03:16;20.10;60.30
74520;DHT22;63002;48.134;-1.948;2023-11-22T20:05:42;20.10;60.30
74520;DHT22;63002;48.134;-1.948;2023-11-22T20:08:08;20.10;60.20
74520;DHT22;63002;48.134;-1.948;2023-11-22T20:10:37;20.10;60.20
74520;DHT22;63002;48.134;-1.948;2023-11-22T20:13:03;20.10;60.20
74520;DHT22;63002;48.134;-1.948;2023-11-22T20:15:30;20.10;60.20
74520;DHT22;63002;48.134;-1.948;2023-11-22T20:17:56;20.10;60.20
74520;DHT22;63002;48.134;-1.948;2023-11-22T20:20:23;20.10;60.20
74520;DHT22;63002;48.134;-1.948;2023-11-22T20:22:51;20.10;60.20
74520;DHT22;63002;48.134;-1.948;2023-11-22T20:25:17;20.10;60.10
74520;DHT22;63002;48.134;-1.948;2023-11-22T20:27:43;20.10;60.20
74520;DHT22;63002;48.134;-1.948;2023-11-22T20:30:09;20.00;60.20
74520;DHT22;63002;48.134;-1.948;2023-11-22T20:32:34;20.00;60.20
74520;DHT22;63002;48.134;-1.948;2023-11-22T20:35:00;20.00;60.20
74520;DHT22;63002;48.134;-1.948;2023-11-22T20:37:26;20.00;60.20
74520;DHT22;63002;48.134;-1.948;2023-11-22T20:39:52;19.90;60.20
74520;DHT22;63002;48.134;-1.948;2023-11-22T20:42:18;20.00;60.10
74520;DHT22;63002;48.134;-1.948;2023-11-22T20:44:44;19.90;60.10
74520;DHT22;63002;48.134;-1.948;2023-11-22T20:47:10;19.90;60.10
74520;DHT22;63002;48.134;-1.948;2023-11-22T20:49:36;19.90;60.10
74520;DHT22;63002;48.134;-1.948;2023-11-22T20:52:03;19.90;60.00
74520;DHT22;63002;48.134;-1.948;2023-11-22T20:54:29;19.90;60.10
74520;DHT22;63002;48.134;-1.948;2023-11-22T20:56:55;20.00;60.10
74520;DHT22;63002;48.134;-1.948;2023-11-22T20:59:21;20.20;60.50
74520;DHT22;63002;48.134;-1.948;2023-11-22T21:01:47;20.20;60.40
74520;DHT22;63002;48.134;-1.948;2023-11-22T21:04:13;20.10;60.30
74520;DHT22;63002;48.134;-1.948;2023-11-22T21:06:42;20.10;60.40
74520;DHT22;63002;48.134;-1.948;2023-11-22T21:09:08;20.10;60.40
74520;DHT22;63002;48.134;-1.948;2023-11-22T21:11:41;20.10;60.30
74520;DHT22;63002;48.134;-1.948;2023-11-22T21:14:10;20.00;60.50